Hovedside
METAR-TAF:

METAR-TAF

Lufthavner :

Kairo, Egypt

breddegrad: 30-08N, lengdegrad: 031-24E, høyde over havet: 64 m

Gjeldene værobservasjon

Denne rapporten ble laget for 24 minutter siden, klokken 19:30 UTC
Vind 11 kt fra Nord
Temperatur 28°C
Luftfuktighet 66%
Trykk 1011 hPa
Sikt 10 km eller mer
ingen skyer under 1500 m og ingen bygeskyer

METAR: HECA 161930Z 35011KT CAVOK 28/21 Q1011 NOSIG

Tid: 21:54 (19:54 UTC)

Varsel

Denne rapporten ble laget for 2 timer og 54 minutter siden, klokken 17:00 UTC
Varsel gyldig fra 16. klokken 18 UTC til 17. klokken 24 UTC
Vind 9 kt fra Nord
Sikt 10 km eller mer
ingen skyer under 1500 m og ingen bygeskyer
Midlertidig
fra 17. klokken 03 UTC til 17. klokken 06 UTC
Vind 3 kt fra skiftende retning
Sikt: 4000 m
dis

TAF: HECA 161700Z 1618/1724 35009KT CAVOK TEMPO 1703/1706 VRB03KT 4000 BR NSC

Værobservasjoner og værvarsel for over 4000 flyplasser (METAR- og TAF-rapporter).

Tilgjengelige stasjoner er representert av de røde og gule prikkene på kartet.

Hold musepekeren over prikken for å se navnet på stasjonen.

Klikk så for å se værobservasjoner og -varsler.

For å forandre kartet kan du klikke på den grønne knappen med svart kryss for å zoome inn, på den grønne knappen med strek for å zoome ut, eller på de grønne pilene for å se tilstøtende kart.


METAR-TAF: